マレ の空港の天気 - METARとTAF

マレ国際空港 ( VRMM / MLE ) - モルディブ Hulhule Island, North Male Atoll
飛行場実況気象(Metar)
観測時間12/01 00:00 MVT (11/30 19:00 UTC)
風向・風速東 5m/s
視程10km以上
天気現象弱い雷雨
少しの雲 雲底高度 520m
少しの雲 雲底高度 550m
全天の8割程度の雲 雲底高度 3660m
気温28℃
湿度89%
気圧1012hPa
METARVRMM 301900Z 09009KT 9999 -TSRA FEW017 FEW018CB BKN120 28/26 Q1012 RETS CB S,SW TEMPO 5000 -TSRA
過去の天気等 Google飛行場航空写真 Wunderground天気予報

過去48時間のMETAR

飛行場予報(TAF)
発表時間: 11/30 22:00 MVT (11/30 17:00 UTC)
予報対象時間: 30日23時 MVT ~ 2日5時 MVT
風向・風速東北東 6m/s
視程10km以上
少しの塔状積雲 雲底高度 550m
30日23時 MVT ~ 1日5時 MVT に一時的に
視程4000m
天気現象雷雨
全天の4割程度の雲 雲底高度 490m
少しの積乱雲 雲底高度 520m
TAF VRMM 301700Z 3018/0124 06011KT 9999 FEW018TCU
TEMPO 3018/3024 4000 TSRA SCT016 FEW017CB